• Join FlightAware (Why Join?)
  • Login
  • US Flag 
05:31PM EST


 

Airport Tracker/Info


-or-


 

Live Flight TrackerFlight Track Log ✈ GGA1 ✈ 09-Apr-2013 ✈ KAHN - KCSG

Flight Track Log - Related Links

Times and Time Zones

All times are in EDT time to prevent confusion due to time zone crossing. See the GGA1 flight status page for this flight to view local times or setup timezone preferences in your user account.

Time Position Orientation Groundspeed Altitude Reporting Facility
EDT Latitude Longitude Course Direction KTS MPH feet Rate Location/Type
05:14PM 33.8833 -83.3500 151° Southeast 155 178 4,200  Level Atlanta TRACON
05:15PM 33.8333 -83.3500 180° South 161 185 6,200 1,860 Climbing Atlanta TRACON
05:17PM 33.7649 -83.3674 198° South  Level FlightAware Approximate
05:17PM 33.7500 -83.3500 198° South 168 193 9,800  Level Atlanta TRACON
05:18PM 33.7000 -83.3667 195° South 203 234 10,000  Climbing Atlanta TRACON
05:19PM 33.6958 -83.6166 194° South  Level Estimated
05:20PM 33.6447 -83.5831 151° Southeast  Level FlightAware Approximate
05:20PM 33.6393 -83.4136 194° South  Level FlightAware Approximate
05:21PM 33.5000 -83.4167 196° South 240 276 10,000  Level Atlanta TRACON
05:22PM 33.4333 -83.4333 192° South 240 276 10,000  Level Atlanta TRACON
05:23PM 33.3667 -83.4500 192° South 238 274 10,000  Level Atlanta TRACON
05:24PM 33.3000 -83.4667 192° South 239 275 10,000  Level Atlanta TRACON
05:25PM 33.2333 -83.4833 192° South 239 275 10,000  Level Atlanta TRACON
05:27PM 33.2458 -83.5405 196° South  Level FlightAware Approximate
05:27PM 33.1731 -83.5256 210° Southwest  Level FlightAware Approximate
05:27PM 33.1333 -83.5500 210° Southwest 241 277 10,000  Level Atlanta TRACON
05:29PM 33.0742 -83.5944 212° Southwest  Level FlightAware Approximate
05:30PM 33.0333 -83.7667 245° Southwest 241 277 10,000  Level Atlanta TRACON
05:31PM 33.0167 -83.8333 253° West 240 276 10,000  Level Atlanta TRACON
05:32PM 32.9833 -83.9167 245° Southwest 240 276 10,000  Level Atlanta TRACON
05:33PM 32.9500 -83.9833 239° Southwest 240 276 10,000  Level Atlanta TRACON
05:34PM 32.9167 -84.0500 239° Southwest 240 276 10,000  Level Atlanta TRACON
05:35PM 32.8833 -84.1167 239° Southwest 240 276 10,000  Level Atlanta TRACON
05:36PM 32.8938 -84.0325 245° Southwest  Level FlightAware Approximate
05:36PM 32.8500 -84.2000 245° Southwest 240 276 10,000  Level Atlanta TRACON
05:37PM 32.8167 -84.2667 239° Southwest 243 280 9,800 -480 Descending Atlanta TRACON
05:38PM 32.7833 -84.3333 239° Southwest 251 289 9,100 -780 Descending Atlanta TRACON
05:39PM 32.7500 -84.4167 245° Southwest 254 292 8,300 -1,020 Descending Atlanta TRACON
05:41PM 32.7053 -84.4838 232° Southwest  Level FlightAware Approximate
05:41PM 32.6833 -84.5500 232° Southwest 246 283 6,100  Level Atlanta TRACON
05:42PM 32.6667 -84.6167 253° West 238 274 4,800 -1,500 Descending Atlanta TRACON
05:43PM 32.6333 -84.7000 245° Southwest 230 265 3,100 -900 Descending Atlanta TRACON
05:44PM 32.6000 -84.7500 232° Southwest 180 207 3,000 -360 Descending Atlanta TRACON
05:45PM 32.5833 -84.8000 248° West 165 190 2,500 -360 Descending Atlanta TRACON
05:46PM 32.5667 -84.8500 248° West 180 207 2,300 -480 Descending Atlanta TRACON
05:47PM 32.5500 -84.9000 248° West 151 174 1,600 -720 Descending Atlanta TRACON
05:49PM 32.5163 -84.9389 239° Southwest  Level Estimated
05:56PM 32.5163 -84.9389 239° Southwest  Level Estimated
05:57PM 32.5163 -84.9389 239° Southwest  Level Estimated